Aeroporto :
LOGIN :

Iscrizione | Disclaimer

   EN    FR    IT 

 










Sommario :    VFR   VFR Marginale   IFR   IFR Intensivo   IFR Molto Intensivo
Visibilità : 
Base nubi : 
>= 8 km
>= 3000ft
5 / 8 km
1000 / 3000 ft
1500m / 5 km
500 / 1000 ft
800 / 1500m
200 / 500 ft
< 800m
< 200 ft
Simboli :   Temporali  Nebbia  Neve Forte  Precipitazioni Forti  Vento > 20 kt
SIGMETs :   Varie  Temporali  Ghiacco  Turbolenza  Onda orograficha  Ceneri Vulcaniche






- Altitudine del aeroporto : 12 ft
- Codice IATA : BCN


LEBL - Barcelone

ULTIMO METAR :
  • 292300Z 22006KT CAVOK 19/18 Q1015 NOSIG

METARs OBSOLETI :
  • 292230Z 21005KT CAVOK 19/18 Q1015 NOSIG
  • 292200Z 22004KT CAVOK 19/18 Q1015 NOSIG
  • 292130Z 22004KT CAVOK 20/18 Q1015 NOSIG
  • 292100Z VRB02KT CAVOK 20/18 Q1015 NOSIG
  • 292030Z 20004KT 160V230 CAVOK 20/18 Q1015 NOSIG
  • 292000Z 20007KT CAVOK 20/18 Q1015 NOSIG
  • 291930Z 20008KT CAVOK 20/18 Q1015 NOSIG
  • 291900Z 20009KT CAVOK 21/18 Q1015 NOSIG
  • 291830Z 21010KT CAVOK 21/18 Q1015 NOSIG

TAF TAF LEBL
Valido dal 29 a 18 ore il 30 a 18 ore UTC


291700Z 2918/3018 21012KT 9999 FEW020 TX25/3013Z TN17/3006Z
BECMG 2921/2923 32004KT
PROB30
TEMPO 2921/3003 3000 BR BKN004
BECMG 3006/3009 21010KT
BECMG 3015/3018 09008KT



MetMap, La meteo Aeronautica in un colpo d'occhio ! - Copyright ORBIFLY Dicembre 2007 - Disclaimer

ORBIFLY MET'MAP TEAM :

Programmazione e sviluppo : Alexandra Zaïnal
Concezione : Baudouin d'Aumeries
Supporto tecnico e logistico : Manuel Goepfert
Aiuto : Marc-Olivier Méhu
Aiuto per la traduzione : Arnaldo La Scala




FONTI E CREDITI :

   NOAA